ETNL/RLG METAR and TAF weather

Enter ICAO airport designator
Station Type Date Time Source
ETNL METAR 2019/08/22 02:20 UTC NOAA

ETNL 220220Z 00000KT 9999 MIFG 10/09 Q1028 BLU+


Station Type Date Time Source
ETNL Decoded METAR 2019/08/22 02:20 UTC NOAA

Station name not available
Aug 21, 2019 - 10:20 PM EDT / 2019.08.22 0220 UTC
Wind: Calm:0
Visibility: greater than 7 mile(s):0
Weather: shallow fog
Temperature: 50 F (10 C)
Dew Point: 48 F (9 C)
Relative Humidity: 93%
Pressure (altimeter): 30.36 in. Hg (1028 hPa)
ob: ETNL 220220Z 00000KT 9999 MIFG 10/09 Q1028 BLU+
cycle: 2

Station Type Date Time Source
ETNL TAF 2019/06/10 05:34 UTC NOAA

TAF ETNL 100400Z 1005/1018 06008KT 9999 NSW BKN100
TEMPO 1005/1018 07012KT 6000 -RA BKN050 OVC100 PROB30 1015/1018 VRB15G30KT 3000 TSRA BKN030CB BY ETGL

Example: see airport list